Time;durP1;ratioP1;P1;durP2;ratioP2;P2;SDS_P1;SDS_P2;PMS_P1;PMS_P2;Temp;Humidity;BMP_temperature;BMP_pressure;BME280_temperature;BME280_humidity;BME280_pressure;Samples;Min_cycle;Max_cycle;Signal;HPM_P1;HPM_P2
2022/05/30 00:00:03;;;;;;;8.07;1.45;;;;;;;;;;4990380;28;20239;-63
2022/05/30 00:02:28;;;;;;;7.18;1.70;;;;;;;;;;5011792;28;20208;-63
2022/05/30 00:04:53;;;;;;;7.13;1.40;;;;;;;;;;4986966;28;20228;-63
2022/05/30 00:07:19;;;;;;;11.93;1.80;;;;;;;;;;4981200;28;20215;-63
2022/05/30 00:09:47;;;;;;;6.18;1.30;;;;;;;;;;4986058;28;20365;-63
2022/05/30 00:12:12;;;;;;;7.30;1.60;;;;;;;;;;4981383;28;20749;-63
2022/05/30 00:14:37;;;;;;;9.32;1.58;;;;;;;;;;4981777;28;20209;-63
2022/05/30 00:17:02;;;;;;;7.70;1.63;;;;;;;;;;4992772;28;20609;-63
2022/05/30 00:19:28;;;;;;;8.90;2.10;;;;;;;;;;4973611;28;20561;-63
2022/05/30 00:21:55;;;;;;;10.55;2.15;;;;;;;;;;4974147;28;20764;-63
2022/05/30 00:24:20;;;;;;;6.38;1.50;;;;;;;;;;4981343;28;20228;-63
2022/05/30 00:26:45;;;;;;;9.80;1.85;;;;;;;;;;4981453;28;20232;-63
2022/05/30 00:29:10;;;;;;;9.38;1.88;;;;;;;;;;4991251;28;20219;-63
2022/05/30 00:31:36;;;;;;;8.38;1.48;;;;;;;;;;4997774;28;20220;-63
2022/05/30 00:34:01;;;;;;;9.10;1.60;;;;;;;;;;4981328;28;20228;-62
2022/05/30 00:36:26;;;;;;;8.05;1.60;;;;;;;;;;4981907;28;20204;-63
2022/05/30 00:38:51;;;;;;;7.72;2.03;;;;;;;;;;4982488;28;20217;-63
2022/05/30 00:41:17;;;;;;;8.48;1.80;;;;;;;;;;4974087;28;20716;-63
2022/05/30 00:43:44;;;;;;;10.05;2.00;;;;;;;;;;4983226;28;20555;-63
2022/05/30 00:46:12;;;;;;;10.68;2.17;;;;;;;;;;4976418;28;20553;-63
2022/05/30 00:48:40;;;;;;;7.88;1.55;;;;;;;;;;4982257;28;20241;-64
2022/05/30 00:51:07;;;;;;;9.70;1.85;;;;;;;;;;4998477;28;20828;-62
2022/05/30 00:53:33;;;;;;;9.13;1.70;;;;;;;;;;5015009;28;20303;-63
2022/05/30 00:55:59;;;;;;;8.13;1.55;;;;;;;;;;4996302;28;20220;-64
2022/05/30 00:58:25;;;;;;;8.48;1.63;;;;;;;;;;4985399;28;20804;-63
2022/05/30 01:00:50;;;;;;;7.90;1.58;;;;;;;;;;4998593;28;20271;-64
2022/05/30 01:08:43;;;;;;;9.63;1.60;;;;;;;;;;4979487;28;20219;-64
2022/05/30 01:11:09;;;;;;;9.18;1.75;;;;;;;;;;4982813;28;20213;-63
2022/05/30 01:13:36;;;;;;;12.45;1.70;;;;;;;;;;4984823;28;20224;-64
2022/05/30 01:16:02;;;;;;;5.63;1.60;;;;;;;;;;4984875;28;20299;-63
2022/05/30 01:18:28;;;;;;;6.22;1.50;;;;;;;;;;4985015;28;20271;-64
2022/05/30 01:21:12;;;;;;;13.52;1.48;;;;;;;;;;5004078;28;20726;-63
2022/05/30 01:23:38;;;;;;;7.22;1.73;;;;;;;;;;5001832;28;20212;-64
2022/05/30 01:26:04;;;;;;;9.55;1.92;;;;;;;;;;4981225;28;20213;-64
2022/05/30 01:28:39;;;;;;;8.55;1.70;;;;;;;;;;4977625;28;20984;-63
2022/05/30 01:31:04;;;;;;;9.65;1.80;;;;;;;;;;4975764;28;20220;-63
2022/05/30 01:33:30;;;;;;;8.70;1.83;;;;;;;;;;4981761;28;20217;-63
2022/05/30 01:35:55;;;;;;;10.00;1.85;;;;;;;;;;4985076;28;20217;-64
2022/05/30 01:38:32;;;;;;;7.82;1.90;;;;;;;;;;4987589;28;20233;-63
2022/05/30 01:40:59;;;;;;;8.73;1.95;;;;;;;;;;4984724;28;20240;-64
2022/05/30 01:43:24;;;;;;;9.10;1.80;;;;;;;;;;4996743;28;20296;-63
2022/05/30 01:45:49;;;;;;;8.05;1.83;;;;;;;;;;4984523;28;20308;-64
2022/05/30 01:48:15;;;;;;;6.95;1.70;;;;;;;;;;4981254;28;20321;-63
2022/05/30 01:50:40;;;;;;;8.45;2.40;;;;;;;;;;4977190;28;20689;-63
2022/05/30 01:53:05;;;;;;;9.63;2.05;;;;;;;;;;4981328;28;20217;-63
2022/05/30 01:55:30;;;;;;;8.98;1.88;;;;;;;;;;4980329;28;20229;-63
2022/05/30 01:57:56;;;;;;;6.40;1.90;;;;;;;;;;4996879;28;20228;-63
2022/05/30 02:00:21;;;;;;;8.35;2.15;;;;;;;;;;4993730;28;20221;-64
2022/05/30 02:02:47;;;;;;;9.75;1.73;;;;;;;;;;4983883;28;20708;-63
2022/05/30 02:05:12;;;;;;;9.48;1.60;;;;;;;;;;4988462;28;20229;-64
2022/05/30 02:07:37;;;;;;;8.73;1.60;;;;;;;;;;4983973;28;20201;-64
2022/05/30 02:10:03;;;;;;;9.90;1.90;;;;;;;;;;4991422;28;20570;-63
2022/05/30 02:12:28;;;;;;;10.60;2.03;;;;;;;;;;4975315;28;20221;-63
2022/05/30 02:14:53;;;;;;;9.95;1.73;;;;;;;;;;4976003;28;20209;-64
2022/05/30 02:17:19;;;;;;;11.25;1.85;;;;;;;;;;4975988;28;20805;-63
2022/05/30 02:19:44;;;;;;;7.82;1.77;;;;;;;;;;4982673;28;20213;-64
2022/05/30 02:22:10;;;;;;;9.00;1.75;;;;;;;;;;4983400;28;20289;-63
2022/05/30 02:24:36;;;;;;;8.10;1.58;;;;;;;;;;4984388;28;20224;-63
2022/05/30 02:27:01;;;;;;;11.15;1.60;;;;;;;;;;4987170;28;20280;-62
2022/05/30 02:29:27;;;;;;;8.10;1.83;;;;;;;;;;4983792;28;20544;-64
2022/05/30 02:31:52;;;;;;;11.95;2.03;;;;;;;;;;4995948;28;20209;-63
2022/05/30 02:37:01;;;;;;;9.77;2.50;;;;;;;;;;4980373;28;20295;-62
2022/05/30 02:39:27;;;;;;;9.15;1.98;;;;;;;;;;4976043;28;20244;-64
2022/05/30 02:41:52;;;;;;;7.30;1.52;;;;;;;;;;4998157;28;20680;-64
2022/05/30 02:44:19;;;;;;;8.93;1.80;;;;;;;;;;4988893;28;20223;-63
2022/05/30 02:46:44;;;;;;;8.35;2.00;;;;;;;;;;4985381;28;20244;-64
2022/05/30 02:49:10;;;;;;;8.18;1.75;;;;;;;;;;4982142;28;20236;-63
2022/05/30 02:51:35;;;;;;;7.82;1.52;;;;;;;;;;4983139;28;20256;-63
2022/05/30 02:54:00;;;;;;;8.07;2.05;;;;;;;;;;4998058;28;20236;-64
2022/05/30 02:56:26;;;;;;;8.77;1.80;;;;;;;;;;4993813;28;20561;-64
2022/05/30 02:58:51;;;;;;;9.25;1.70;;;;;;;;;;4976284;28;20240;-64
2022/05/30 03:01:16;;;;;;;6.65;1.85;;;;;;;;;;4974216;28;20689;-63
2022/05/30 03:03:42;;;;;;;10.27;2.58;;;;;;;;;;4994693;28;20235;-64
2022/05/30 03:06:08;;;;;;;9.00;1.80;;;;;;;;;;4997965;28;20213;-63
2022/05/30 03:08:33;;;;;;;8.80;1.88;;;;;;;;;;4983292;28;21221;-64
2022/05/30 03:10:59;;;;;;;10.38;2.05;;;;;;;;;;4983548;28;20367;-63
2022/05/30 03:13:24;;;;;;;11.00;2.13;;;;;;;;;;5001328;28;20208;-65
2022/05/30 03:15:50;;;;;;;6.78;2.10;;;;;;;;;;4985208;28;20213;-63
2022/05/30 03:18:15;;;;;;;9.23;1.92;;;;;;;;;;4987456;28;20323;-63
2022/05/30 03:20:40;;;;;;;7.32;1.88;;;;;;;;;;4975453;28;20437;-64
2022/05/30 03:23:06;;;;;;;10.00;1.80;;;;;;;;;;4973853;28;20785;-63
2022/05/30 03:25:31;;;;;;;11.85;2.10;;;;;;;;;;4976030;28;20225;-63
2022/05/30 03:27:56;;;;;;;6.45;1.80;;;;;;;;;;4993160;28;20201;-63
2022/05/30 03:30:22;;;;;;;8.52;1.60;;;;;;;;;;4983214;28;20220;-64
2022/05/30 03:32:47;;;;;;;10.38;1.70;;;;;;;;;;4982545;28;20206;-63
2022/05/30 03:35:12;;;;;;;8.50;1.52;;;;;;;;;;4982454;28;20225;-63
2022/05/30 03:37:38;;;;;;;7.90;1.50;;;;;;;;;;4990994;28;20225;-63
2022/05/30 03:40:04;;;;;;;7.93;1.50;;;;;;;;;;4982258;28;20210;-63
2022/05/30 03:42:30;;;;;;;7.32;1.65;;;;;;;;;;4977058;28;20205;-63
2022/05/30 03:44:55;;;;;;;6.90;1.63;;;;;;;;;;4974557;28;20240;-63
2022/05/30 03:47:20;;;;;;;5.22;1.60;;;;;;;;;;4974134;28;20300;-63
2022/05/30 03:49:46;;;;;;;10.65;1.70;;;;;;;;;;4979925;28;20290;-63
2022/05/30 03:52:11;;;;;;;8.15;1.60;;;;;;;;;;4981144;28;20279;-63
2022/05/30 03:54:36;;;;;;;7.53;1.50;;;;;;;;;;4982505;28;20244;-62
2022/05/30 03:57:02;;;;;;;5.85;1.50;;;;;;;;;;4983910;28;20616;-62
2022/05/30 03:59:28;;;;;;;6.03;1.25;;;;;;;;;;4981244;28;20220;-63
2022/05/30 04:01:53;;;;;;;6.57;1.40;;;;;;;;;;4981930;28;20817;-63
2022/05/30 04:04:18;;;;;;;6.47;1.40;;;;;;;;;;4978418;28;20813;-63
2022/05/30 04:06:44;;;;;;;8.85;1.70;;;;;;;;;;4975588;28;20259;-63
2022/05/30 04:09:09;;;;;;;7.78;1.30;;;;;;;;;;4974419;28;20206;-63
2022/05/30 04:11:35;;;;;;;7.25;1.88;;;;;;;;;;4977559;28;20208;-63
2022/05/30 04:14:00;;;;;;;5.45;1.70;;;;;;;;;;4982183;28;20213;-63
2022/05/30 04:16:25;;;;;;;7.85;1.50;;;;;;;;;;4996886;28;20628;-63
2022/05/30 04:18:50;;;;;;;10.70;1.70;;;;;;;;;;4981544;28;20233;-63
2022/05/30 04:21:16;;;;;;;6.07;1.42;;;;;;;;;;4980825;28;20209;-62
2022/05/30 04:23:42;;;;;;;10.73;2.40;;;;;;;;;;5001012;28;20324;-63
2022/05/30 04:26:07;;;;;;;6.95;1.92;;;;;;;;;;4978796;28;20251;-62
2022/05/30 04:28:33;;;;;;;9.70;2.30;;;;;;;;;;4978273;28;20282;-63
2022/05/30 04:30:58;;;;;;;6.07;2.03;;;;;;;;;;4973570;28;20224;-63
2022/05/30 04:33:23;;;;;;;6.63;2.38;;;;;;;;;;4974303;28;20252;-63
2022/05/30 04:35:48;;;;;;;8.68;2.58;;;;;;;;;;4981612;28;20601;-63
2022/05/30 04:38:14;;;;;;;9.02;2.83;;;;;;;;;;4985235;28;20236;-63
2022/05/30 04:40:39;;;;;;;9.13;2.63;;;;;;;;;;4985653;28;20351;-63
2022/05/30 04:43:04;;;;;;;8.27;2.53;;;;;;;;;;4985280;28;20559;-63
2022/05/30 04:45:29;;;;;;;6.18;2.40;;;;;;;;;;4991764;28;20212;-63
2022/05/30 04:47:55;;;;;;;6.80;2.10;;;;;;;;;;4988438;28;20212;-63
2022/05/30 04:50:20;;;;;;;6.25;2.60;;;;;;;;;;4978858;28;20275;-63
2022/05/30 04:52:46;;;;;;;5.63;2.03;;;;;;;;;;4979930;28;20231;-63
2022/05/30 04:55:11;;;;;;;4.57;1.85;;;;;;;;;;4995918;28;20286;-63
2022/05/30 04:57:40;;;;;;;5.05;1.63;;;;;;;;;;5008647;28;20224;-63
2022/05/30 05:00:06;;;;;;;5.88;1.70;;;;;;;;;;4985151;28;20312;-63
2022/05/30 05:02:31;;;;;;;7.05;1.60;;;;;;;;;;5001830;28;20303;-63
2022/05/30 05:04:56;;;;;;;6.00;1.70;;;;;;;;;;5004267;28;20251;-63
2022/05/30 05:07:22;;;;;;;3.78;1.40;;;;;;;;;;5000478;28;20209;-63
2022/05/30 05:09:52;;;;;;;3.40;1.48;;;;;;;;;;4985538;28;20236;-63
2022/05/30 05:12:17;;;;;;;4.70;1.40;;;;;;;;;;4995988;28;20359;-63
2022/05/30 05:14:43;;;;;;;14.80;2.22;;;;;;;;;;4977425;28;20316;-63
2022/05/30 05:17:08;;;;;;;4.97;1.45;;;;;;;;;;4975879;28;20334;-63
2022/05/30 05:19:34;;;;;;;3.15;1.20;;;;;;;;;;4981234;28;20221;-64
2022/05/30 05:21:59;;;;;;;4.38;1.75;;;;;;;;;;4984752;28;20209;-63
2022/05/30 05:24:25;;;;;;;4.72;1.50;;;;;;;;;;4983968;28;20554;-63
2022/05/30 05:26:50;;;;;;;5.22;1.67;;;;;;;;;;4985279;28;20213;-63
2022/05/30 05:29:15;;;;;;;7.15;1.50;;;;;;;;;;4985042;28;20692;-64
2022/05/30 05:31:41;;;;;;;5.88;1.55;;;;;;;;;;4988995;28;20567;-63
2022/05/30 05:34:07;;;;;;;6.57;1.73;;;;;;;;;;4982929;28;20205;-63
2022/05/30 05:36:33;;;;;;;5.13;1.73;;;;;;;;;;4998629;28;20217;-64
2022/05/30 05:38:59;;;;;;;5.28;1.60;;;;;;;;;;5004357;28;20229;-64
2022/05/30 05:41:24;;;;;;;6.45;1.60;;;;;;;;;;5022806;28;20219;-63
2022/05/30 05:43:50;;;;;;;4.55;1.40;;;;;;;;;;5019887;28;20231;-63
2022/05/30 05:46:16;;;;;;;6.40;1.80;;;;;;;;;;5012449;28;20411;-64
2022/05/30 05:48:41;;;;;;;5.50;1.63;;;;;;;;;;5009431;28;20247;-63
2022/05/30 05:51:07;;;;;;;3.17;1.63;;;;;;;;;;5010466;28;20208;-61
2022/05/30 05:53:32;;;;;;;5.72;1.42;;;;;;;;;;5014367;28;20263;-64
2022/05/30 05:55:57;;;;;;;6.65;1.83;;;;;;;;;;5025788;28;20207;-63
2022/05/30 05:58:23;;;;;;;3.78;1.48;;;;;;;;;;5015586;28;20404;-63
2022/05/30 06:00:48;;;;;;;5.95;1.50;;;;;;;;;;5015771;28;20209;-63
2022/05/30 06:03:13;;;;;;;5.38;1.52;;;;;;;;;;4993364;28;20267;-62
2022/05/30 06:05:39;;;;;;;5.88;1.38;;;;;;;;;;4993080;28;20799;-63
2022/05/30 06:08:04;;;;;;;5.72;1.40;;;;;;;;;;5014106;28;20267;-62
2022/05/30 06:10:30;;;;;;;5.40;1.63;;;;;;;;;;5010195;28;20207;-62
2022/05/30 06:12:55;;;;;;;5.80;1.10;;;;;;;;;;5012166;28;20250;-63
2022/05/30 06:15:20;;;;;;;2.80;1.00;;;;;;;;;;5012260;28;20687;-63
2022/05/30 06:17:46;;;;;;;3.60;0.90;;;;;;;;;;5009936;28;20219;-63
2022/05/30 06:20:13;;;;;;;4.05;1.15;;;;;;;;;;5009921;28;20228;-62
2022/05/30 06:22:38;;;;;;;4.15;0.93;;;;;;;;;;5006476;28;20295;-62
2022/05/30 06:25:03;;;;;;;1.77;0.73;;;;;;;;;;5001841;28;20312;-71
2022/05/30 06:27:29;;;;;;;3.83;0.90;;;;;;;;;;5006213;28;20220;-66
2022/05/30 06:29:54;;;;;;;6.18;1.00;;;;;;;;;;5010353;28;20213;-69
2022/05/30 06:32:19;;;;;;;2.05;0.55;;;;;;;;;;5019382;28;20751;-68
2022/05/30 06:34:45;;;;;;;2.22;0.68;;;;;;;;;;5011747;28;20238;-71
2022/05/30 06:37:10;;;;;;;5.20;0.80;;;;;;;;;;5013542;28;20322;-68
2022/05/30 06:39:36;;;;;;;2.67;0.77;;;;;;;;;;5009173;28;20205;-69
2022/05/30 06:42:02;;;;;;;5.95;1.00;;;;;;;;;;5013384;28;20212;-69
2022/05/30 06:44:27;;;;;;;4.40;0.80;;;;;;;;;;5013433;28;20223;-70
2022/05/30 06:46:52;;;;;;;2.45;0.80;;;;;;;;;;5010231;28;20731;-68
2022/05/30 06:49:17;;;;;;;2.92;0.70;;;;;;;;;;5011133;28;20216;-69
2022/05/30 06:51:44;;;;;;;4.00;0.70;;;;;;;;;;5012427;28;20597;-68
2022/05/30 06:54:09;;;;;;;2.10;0.50;;;;;;;;;;5010139;28;20302;-67
2022/05/30 06:56:35;;;;;;;4.10;0.50;;;;;;;;;;5007044;28;20209;-65
2022/05/30 06:59:00;;;;;;;3.40;0.63;;;;;;;;;;5001624;28;20224;-63
2022/05/30 07:01:27;;;;;;;4.22;0.70;;;;;;;;;;4993164;28;20213;-66
2022/05/30 07:03:52;;;;;;;1.98;0.40;;;;;;;;;;4998038;28;20268;-63
2022/05/30 07:06:19;;;;;;;2.95;0.90;;;;;;;;;;5009819;28;20213;-67
2022/05/30 07:08:46;;;;;;;4.25;0.60;;;;;;;;;;5010230;28;20291;-66
2022/05/30 07:11:11;;;;;;;4.35;1.10;;;;;;;;;;5010607;28;20303;-68
2022/05/30 07:13:36;;;;;;;3.50;0.80;;;;;;;;;;5011764;28;20287;-66
2022/05/30 07:16:02;;;;;;;3.80;0.93;;;;;;;;;;5010841;28;20208;-65
2022/05/30 07:18:28;;;;;;;5.47;1.00;;;;;;;;;;5011870;28;20244;-66
2022/05/30 07:20:55;;;;;;;4.97;1.20;;;;;;;;;;5011776;28;20577;-71
2022/05/30 07:23:20;;;;;;;3.90;0.85;;;;;;;;;;5009696;28;20227;-66
2022/05/30 07:25:45;;;;;;;2.88;0.70;;;;;;;;;;5010994;28;20213;-66
2022/05/30 07:28:12;;;;;;;4.28;0.65;;;;;;;;;;5011665;28;20235;-65
2022/05/30 07:30:38;;;;;;;2.85;0.60;;;;;;;;;;5010847;28;20227;-66
2022/05/30 07:33:03;;;;;;;3.15;0.70;;;;;;;;;;5009855;28;20291;-65
2022/05/30 07:35:28;;;;;;;2.08;0.55;;;;;;;;;;5010939;28;20220;-66
2022/05/30 07:37:54;;;;;;;2.55;0.68;;;;;;;;;;5010147;28;20300;-66
2022/05/30 07:40:19;;;;;;;3.63;0.60;;;;;;;;;;5011073;28;20208;-67
2022/05/30 07:42:45;;;;;;;1.60;0.50;;;;;;;;;;5011357;28;20205;-67
2022/05/30 07:45:10;;;;;;;2.30;0.65;;;;;;;;;;4993479;28;20268;-66
2022/05/30 07:47:36;;;;;;;2.40;0.50;;;;;;;;;;4991932;28;20217;-65
2022/05/30 07:50:02;;;;;;;2.35;0.40;;;;;;;;;;5001414;28;20213;-64
2022/05/30 07:52:30;;;;;;;3.00;1.27;;;;;;;;;;5011419;28;20223;-66
2022/05/30 07:54:55;;;;;;;3.67;1.38;;;;;;;;;;5011433;28;20216;-66
2022/05/30 07:57:50;;;;;;;4.18;1.08;;;;;;;;;;5008964;28;20274;-66
2022/05/30 08:00:06;;;;;;;5.53;1.00;;;;;;;;;;5009639;28;20243;-65
2022/05/30 08:02:31;;;;;;;4.20;1.20;;;;;;;;;;4998899;28;20229;-66
2022/05/30 08:04:56;;;;;;;4.88;0.80;;;;;;;;;;4990812;28;20217;-66
2022/05/30 08:07:22;;;;;;;1.95;0.70;;;;;;;;;;4991635;28;20209;-65
2022/05/30 08:09:47;;;;;;;3.25;0.70;;;;;;;;;;4991828;28;20209;-66
2022/05/30 08:12:12;;;;;;;1.95;0.50;;;;;;;;;;4989761;28;20267;-65
2022/05/30 08:14:38;;;;;;;4.75;0.70;;;;;;;;;;4991536;28;20205;-66
2022/05/30 08:17:04;;;;;;;3.75;0.90;;;;;;;;;;4990975;28;20221;-65
2022/05/30 08:19:29;;;;;;;3.85;0.90;;;;;;;;;;4990550;28;20213;-66
2022/05/30 08:22:00;;;;;;;5.15;0.95;;;;;;;;;;4991613;28;20300;-65
2022/05/30 08:24:26;;;;;;;9.73;1.20;;;;;;;;;;4999557;28;20213;-69
2022/05/30 08:26:52;;;;;;;8.32;1.00;;;;;;;;;;4988267;28;20229;-68
2022/05/30 08:29:17;;;;;;;4.07;0.93;;;;;;;;;;4990959;28;20225;-67
2022/05/30 08:31:43;;;;;;;4.78;0.90;;;;;;;;;;4990971;28;20312;-67
2022/05/30 08:34:08;;;;;;;4.03;0.88;;;;;;;;;;5007612;28;20216;-65
2022/05/30 08:36:33;;;;;;;7.40;0.98;;;;;;;;;;5011172;28;20208;-67
2022/05/30 08:41:48;;;;;;;6.60;0.70;;;;;;;;;;5010324;28;20262;-69
2022/05/30 08:44:13;;;;;;;3.70;0.65;;;;;;;;;;5010268;28;20219;-69
2022/05/30 08:46:43;;;;;;;2.95;0.80;;;;;;;;;;5009960;28;20216;-68
2022/05/30 08:49:18;;;;;;;6.35;0.77;;;;;;;;;;5010611;28;20242;-67
2022/05/30 08:51:51;;;;;;;6.80;0.88;;;;;;;;;;5009808;28;20214;-66
2022/05/30 08:54:18;;;;;;;3.08;0.63;;;;;;;;;;4999979;28;20224;-66
2022/05/30 08:56:43;;;;;;;4.20;0.80;;;;;;;;;;5008154;28;20307;-67
2022/05/30 08:59:24;;;;;;;3.15;0.80;;;;;;;;;;5008260;28;20295;-65
2022/05/30 09:01:51;;;;;;;2.40;0.50;;;;;;;;;;5008337;28;20308;-64
2022/05/30 09:04:24;;;;;;;1.65;0.60;;;;;;;;;;5008729;28;20235;-65
2022/05/30 09:06:53;;;;;;;3.00;0.50;;;;;;;;;;5008813;28;20335;-65
2022/05/30 09:09:27;;;;;;;5.25;0.63;;;;;;;;;;5007828;28;20270;-65
2022/05/30 09:11:54;;;;;;;2.97;0.50;;;;;;;;;;4997829;28;20210;-65
2022/05/30 09:14:21;;;;;;;2.95;0.57;;;;;;;;;;5024266;28;20295;-65
2022/05/30 09:16:50;;;;;;;3.85;0.40;;;;;;;;;;5008700;28;20204;-65
2022/05/30 09:19:15;;;;;;;6.60;0.82;;;;;;;;;;5008314;28;20241;-64
2022/05/30 09:21:41;;;;;;;4.32;0.47;;;;;;;;;;5007640;28;20215;-65
2022/05/30 09:24:06;;;;;;;2.70;0.45;;;;;;;;;;5011367;28;20295;-64
2022/05/30 09:26:33;;;;;;;3.35;0.50;;;;;;;;;;5005907;28;20216;-65
2022/05/30 09:29:01;;;;;;;2.70;0.60;;;;;;;;;;5001944;28;20194;-65
2022/05/30 09:31:27;;;;;;;3.67;0.50;;;;;;;;;;5005075;28;20208;-64
2022/05/30 09:33:54;;;;;;;2.95;0.45;;;;;;;;;;5004854;28;20208;-65
2022/05/30 09:36:21;;;;;;;1.48;0.43;;;;;;;;;;5001134;28;20220;-65
2022/05/30 09:38:49;;;;;;;3.15;0.57;;;;;;;;;;5000988;28;20221;-65
2022/05/30 09:41:22;;;;;;;2.22;0.60;;;;;;;;;;5009239;28;20573;-65
2022/05/30 09:43:50;;;;;;;3.40;0.65;;;;;;;;;;5004838;28;20328;-65
2022/05/30 09:46:19;;;;;;;2.35;0.63;;;;;;;;;;5006271;28;20663;-65
2022/05/30 09:48:58;;;;;;;5.60;0.70;;;;;;;;;;5005007;28;20301;-65
2022/05/30 09:51:31;;;;;;;2.60;0.70;;;;;;;;;;5002052;28;20211;-65
2022/05/30 09:53:57;;;;;;;2.97;0.52;;;;;;;;;;5004228;28;20246;-65
2022/05/30 09:56:23;;;;;;;2.30;0.60;;;;;;;;;;5004557;28;20213;-65
2022/05/30 09:58:49;;;;;;;3.92;0.50;;;;;;;;;;5002707;28;20749;-65
2022/05/30 10:01:22;;;;;;;2.80;0.55;;;;;;;;;;5000555;28;20213;-65
2022/05/30 10:03:48;;;;;;;2.05;0.50;;;;;;;;;;5000136;28;20213;-66
2022/05/30 10:06:15;;;;;;;2.95;0.50;;;;;;;;;;5003737;28;20278;-65
2022/05/30 10:08:41;;;;;;;3.13;0.63;;;;;;;;;;5001899;28;20637;-65
2022/05/30 10:11:06;;;;;;;3.85;0.70;;;;;;;;;;5001309;28;20287;-65
2022/05/30 10:13:34;;;;;;;2.50;0.73;;;;;;;;;;5002601;28;20274;-65
2022/05/30 10:16:00;;;;;;;3.40;0.70;;;;;;;;;;5001549;28;20282;-65
2022/05/30 10:18:28;;;;;;;2.90;0.70;;;;;;;;;;4999671;28;20696;-64
2022/05/30 10:21:03;;;;;;;3.70;0.60;;;;;;;;;;5002706;28;20204;-65
2022/05/30 10:29:27;;;;;;;3.80;0.63;;;;;;;;;;5003423;28;20636;-65
2022/05/30 10:31:52;;;;;;;6.53;0.80;;;;;;;;;;5006070;28;20235;-65
2022/05/30 10:34:23;;;;;;;3.67;0.65;;;;;;;;;;5000641;28;20232;-65
2022/05/30 10:37:01;;;;;;;3.30;0.60;;;;;;;;;;5002835;28;20585;-67
2022/05/30 10:39:26;;;;;;;4.13;0.70;;;;;;;;;;5005330;28;20239;-66
2022/05/30 10:41:54;;;;;;;4.53;0.90;;;;;;;;;;5002504;28;20204;-66
2022/05/30 10:44:21;;;;;;;5.88;0.90;;;;;;;;;;5003466;28;20560;-66
2022/05/30 10:46:51;;;;;;;3.65;0.82;;;;;;;;;;5006783;28;20243;-65
2022/05/30 10:49:19;;;;;;;4.82;0.93;;;;;;;;;;5001615;28;20235;-66
2022/05/30 10:52:03;;;;;;;6.22;0.80;;;;;;;;;;5001453;28;20287;-66
2022/05/30 10:54:33;;;;;;;3.03;0.75;;;;;;;;;;5002401;28;20253;-66
2022/05/30 10:57:07;;;;;;;2.60;1.05;;;;;;;;;;5001301;28;20340;-66
2022/05/30 10:59:36;;;;;;;3.90;0.80;;;;;;;;;;5002267;28;20200;-66
2022/05/30 11:02:20;;;;;;;6.28;0.85;;;;;;;;;;5001418;28;20576;-63
2022/05/30 11:04:54;;;;;;;3.28;0.82;;;;;;;;;;5009375;28;20211;-67
2022/05/30 11:07:36;;;;;;;2.33;0.75;;;;;;;;;;5000004;28;20672;-66
2022/05/30 11:10:02;;;;;;;3.25;0.77;;;;;;;;;;5001362;28;20257;-64
2022/05/30 11:12:29;;;;;;;2.38;0.70;;;;;;;;;;5002780;28;20232;-65
2022/05/30 11:15:01;;;;;;;4.03;0.68;;;;;;;;;;5000468;28;20212;-65
2022/05/30 11:17:32;;;;;;;4.22;1.00;;;;;;;;;;5020708;28;20228;-66
2022/05/30 11:20:09;;;;;;;2.00;0.90;;;;;;;;;;5016418;28;20208;-64
2022/05/30 11:22:36;;;;;;;4.80;0.70;;;;;;;;;;5004634;28;20208;-65
2022/05/30 11:25:01;;;;;;;7.18;0.98;;;;;;;;;;4999549;28;20208;-64
2022/05/30 11:27:30;;;;;;;3.15;0.88;;;;;;;;;;4984890;28;20582;-69
2022/05/30 11:30:14;;;;;;;5.57;0.98;;;;;;;;;;5002111;28;20196;-70
2022/05/30 11:32:41;;;;;;;4.25;0.90;;;;;;;;;;5006373;28;20213;-64
2022/05/30 11:35:17;;;;;;;4.43;0.85;;;;;;;;;;4999432;28;20220;-63
2022/05/30 11:37:48;;;;;;;4.70;1.02;;;;;;;;;;5001101;28;20225;-64
2022/05/30 11:40:18;;;;;;;4.95;0.98;;;;;;;;;;4991192;28;20225;-69
2022/05/30 11:42:48;;;;;;;7.95;1.10;;;;;;;;;;4990291;28;20209;-67
2022/05/30 11:45:21;;;;;;;6.63;1.05;;;;;;;;;;5008275;28;20227;-72
2022/05/30 11:47:46;;;;;;;4.32;0.90;;;;;;;;;;5010067;28;20553;-74
2022/05/30 11:50:11;;;;;;;4.63;0.80;;;;;;;;;;5010259;28;20215;-74
2022/05/30 11:52:55;;;;;;;6.13;1.30;;;;;;;;;;5011712;28;20220;-75
2022/05/30 11:55:32;;;;;;;4.28;0.73;;;;;;;;;;5009666;28;20707;-74
2022/05/30 11:58:04;;;;;;;4.28;1.10;;;;;;;;;;5009394;28;20251;-75
2022/05/30 12:00:32;;;;;;;3.72;1.00;;;;;;;;;;4993134;28;20235;-75
2022/05/30 12:03:09;;;;;;;3.60;0.95;;;;;;;;;;5010658;28;20207;-75
2022/05/30 12:05:34;;;;;;;3.35;1.00;;;;;;;;;;4995021;28;20219;-76
2022/05/30 12:08:15;;;;;;;4.63;0.82;;;;;;;;;;5011640;28;20212;-75
2022/05/30 12:10:45;;;;;;;2.53;0.70;;;;;;;;;;4995615;28;20208;-75
2022/05/30 12:13:14;;;;;;;3.15;0.63;;;;;;;;;;5010872;28;20303;-74
2022/05/30 12:15:40;;;;;;;3.67;0.70;;;;;;;;;;5010949;28;20216;-75
2022/05/30 12:24:01;;;;;;;2.67;0.70;;;;;;;;;;5009199;28;20246;-76
2022/05/30 12:26:45;;;;;;;3.15;0.80;;;;;;;;;;5009889;28;20208;-74
2022/05/30 12:29:18;;;;;;;8.07;2.30;;;;;;;;;;5010421;28;20219;-74
2022/05/30 12:31:43;;;;;;;2.85;1.20;;;;;;;;;;5008420;28;20683;-75
2022/05/30 12:34:09;;;;;;;4.38;1.50;;;;;;;;;;4993152;28;20217;-78
2022/05/30 12:36:36;;;;;;;5.20;1.38;;;;;;;;;;4991601;28;20287;-75
2022/05/30 12:39:02;;;;;;;6.55;0.85;;;;;;;;;;4990132;28;20229;-75
2022/05/30 12:41:31;;;;;;;3.15;0.90;;;;;;;;;;4990300;28;20669;-76
2022/05/30 12:43:57;;;;;;;3.42;0.80;;;;;;;;;;4997624;28;20209;-76
2022/05/30 12:46:24;;;;;;;2.13;0.80;;;;;;;;;;5008239;28;20214;-75
2022/05/30 12:48:50;;;;;;;3.45;0.70;;;;;;;;;;5010804;28;20748;-75
2022/05/30 12:51:20;;;;;;;4.57;0.93;;;;;;;;;;5010753;28;20295;-76
2022/05/30 12:53:55;;;;;;;4.70;1.00;;;;;;;;;;5008615;28;20628;-75
2022/05/30 12:56:38;;;;;;;3.83;0.95;;;;;;;;;;5010598;28;20222;-77
2022/05/30 12:59:03;;;;;;;4.15;0.80;;;;;;;;;;5013144;28;20311;-77
2022/05/30 13:01:31;;;;;;;3.40;0.80;;;;;;;;;;5014499;28;20291;-77
2022/05/30 13:04:07;;;;;;;2.40;0.80;;;;;;;;;;5013521;28;20216;-78
2022/05/30 13:06:32;;;;;;;4.43;0.80;;;;;;;;;;4997251;28;20228;-63
2022/05/30 13:09:06;;;;;;;6.53;1.15;;;;;;;;;;5013055;28;20853;-67
2022/05/30 13:11:32;;;;;;;2.75;0.80;;;;;;;;;;4997544;28;20230;-67
2022/05/30 13:14:00;;;;;;;7.82;1.45;;;;;;;;;;5013771;28;20220;-67
2022/05/30 13:16:26;;;;;;;4.72;0.90;;;;;;;;;;5012649;28;20204;-67
2022/05/30 13:18:52;;;;;;;2.20;0.90;;;;;;;;;;5012983;28;20224;-66
2022/05/30 13:21:17;;;;;;;2.95;0.90;;;;;;;;;;5013278;28;20220;-66
2022/05/30 13:23:43;;;;;;;4.72;0.70;;;;;;;;;;5012648;28;20279;-67
2022/05/30 13:26:12;;;;;;;2.35;0.80;;;;;;;;;;5014049;28;20247;-67
2022/05/30 13:28:41;;;;;;;3.88;1.08;;;;;;;;;;5012594;28;20217;-67
2022/05/30 13:31:08;;;;;;;4.68;0.80;;;;;;;;;;5014480;28;20204;-66
2022/05/30 13:33:39;;;;;;;2.80;0.80;;;;;;;;;;5000677;28;20264;-67
2022/05/30 13:36:05;;;;;;;2.95;0.90;;;;;;;;;;4993963;28;20201;-66
2022/05/30 13:38:38;;;;;;;2.92;0.90;;;;;;;;;;4993063;28;20217;-67
2022/05/30 13:41:13;;;;;;;3.78;0.75;;;;;;;;;;4994302;28;20649;-67
2022/05/30 13:43:38;;;;;;;3.45;0.82;;;;;;;;;;5000038;28;20214;-66
2022/05/30 13:46:04;;;;;;;3.40;0.73;;;;;;;;;;5012485;28;20295;-66
2022/05/30 13:48:33;;;;;;;5.40;1.30;;;;;;;;;;5012134;28;20262;-67
2022/05/30 13:50:59;;;;;;;2.08;0.70;;;;;;;;;;5014117;28;20217;-67
2022/05/30 13:53:26;;;;;;;4.95;1.10;;;;;;;;;;5013566;28;20215;-67
2022/05/30 13:55:54;;;;;;;4.72;0.95;;;;;;;;;;5011999;28;20212;-66
2022/05/30 13:58:19;;;;;;;5.32;0.80;;;;;;;;;;5013900;28;20228;-66
2022/05/30 14:00:45;;;;;;;3.45;1.25;;;;;;;;;;5012880;28;20551;-67
2022/05/30 14:03:10;;;;;;;3.13;0.70;;;;;;;;;;5012642;28;20216;-68
2022/05/30 14:05:36;;;;;;;3.35;0.73;;;;;;;;;;5013774;28;20200;-68
2022/05/30 14:08:03;;;;;;;3.97;0.80;;;;;;;;;;5012034;28;20577;-67
2022/05/30 14:10:28;;;;;;;3.53;1.00;;;;;;;;;;5010545;28;20679;-68
2022/05/30 14:12:53;;;;;;;5.18;0.90;;;;;;;;;;5012904;28;20698;-68
2022/05/30 14:15:26;;;;;;;1.92;0.70;;;;;;;;;;5013014;28;20212;-68
2022/05/30 14:17:52;;;;;;;3.17;1.00;;;;;;;;;;5011520;28;20224;-67
2022/05/30 14:20:23;;;;;;;3.30;0.88;;;;;;;;;;5013015;28;20219;-68
2022/05/30 14:22:57;;;;;;;3.20;0.85;;;;;;;;;;5013676;28;20213;-68
2022/05/30 14:25:30;;;;;;;2.47;0.70;;;;;;;;;;5011244;28;20208;-68
2022/05/30 14:27:56;;;;;;;2.50;0.77;;;;;;;;;;5012582;28;20223;-68
2022/05/30 14:30:29;;;;;;;2.78;0.90;;;;;;;;;;5013277;28;20283;-67
2022/05/30 14:33:08;;;;;;;3.25;0.90;;;;;;;;;;5005882;28;20583;-68
2022/05/30 14:35:34;;;;;;;3.40;0.90;;;;;;;;;;4999024;28;20227;-69
2022/05/30 14:38:00;;;;;;;2.67;0.82;;;;;;;;;;4991976;28;20217;-69
2022/05/30 14:40:26;;;;;;;3.97;0.80;;;;;;;;;;5000502;28;20206;-69
2022/05/30 14:42:54;;;;;;;1.73;0.63;;;;;;;;;;4993795;28;20212;-68
2022/05/30 14:45:26;;;;;;;5.45;1.25;;;;;;;;;;5009862;28;20216;-71
2022/05/30 14:47:53;;;;;;;5.35;0.90;;;;;;;;;;5008211;28;20227;-68
2022/05/30 14:50:27;;;;;;;4.03;0.93;;;;;;;;;;5012491;28;20266;-68
2022/05/30 14:52:53;;;;;;;4.10;1.00;;;;;;;;;;5011223;28;20239;-68
2022/05/30 14:55:29;;;;;;;3.63;0.85;;;;;;;;;;5012674;28;20233;-67
2022/05/30 14:57:55;;;;;;;3.35;1.00;;;;;;;;;;5011637;28;20216;-67
2022/05/30 15:00:41;;;;;;;4.32;1.27;;;;;;;;;;5011574;28;20212;-68
2022/05/30 15:05:51;;;;;;;2.72;0.90;;;;;;;;;;4995796;28;20570;-67
2022/05/30 15:08:16;;;;;;;5.47;1.02;;;;;;;;;;5012730;28;20224;-68